createdAt,value
2023-01-11T00:00:30.042Z,21.63
2023-01-11T00:02:32.487Z,21.71
2023-01-11T00:04:33.878Z,21.77
2023-01-11T00:06:35.244Z,21.80
2023-01-11T00:08:36.646Z,21.80
2023-01-11T00:10:37.980Z,21.80
2023-01-11T00:12:39.318Z,21.81
2023-01-11T00:14:40.663Z,21.78
2023-01-11T00:16:42.006Z,21.77
2023-01-11T00:18:43.455Z,21.79
2023-01-11T00:20:44.803Z,21.80
2023-01-11T00:22:46.139Z,21.75
2023-01-11T00:24:47.475Z,21.73
2023-01-11T00:26:48.855Z,21.74
2023-01-11T00:28:50.282Z,21.71
2023-01-11T00:30:51.596Z,21.67
2023-01-11T00:32:52.976Z,21.64
2023-01-11T00:34:54.417Z,21.61
2023-01-11T00:36:55.817Z,21.67
2023-01-11T00:38:57.164Z,21.17
2023-01-11T00:41:18.446Z,21.12
2023-01-11T00:43:38.355Z,21.18
2023-01-11T00:45:58.282Z,21.22
2023-01-11T00:48:04.902Z,21.22
2023-01-11T00:50:06.280Z,21.22
2023-01-11T00:52:09.272Z,21.20
2023-01-11T00:54:10.780Z,21.18
2023-01-11T00:56:12.120Z,21.16
2023-01-11T00:58:13.409Z,21.16
2023-01-11T01:00:14.815Z,21.17
2023-01-11T01:02:16.164Z,21.18
2023-01-11T01:04:17.526Z,21.19
2023-01-11T01:06:18.907Z,21.24
2023-01-11T01:08:20.305Z,21.30
2023-01-11T01:10:21.641Z,21.32
2023-01-11T01:12:41.513Z,21.38
2023-01-11T01:14:44.814Z,21.46
2023-01-11T01:16:47.306Z,21.52
2023-01-11T01:18:48.702Z,21.57
2023-01-11T01:20:49.992Z,21.63
2023-01-11T01:22:51.327Z,21.65
2023-01-11T01:24:52.693Z,21.71
2023-01-11T01:26:54.036Z,21.73
2023-01-11T01:28:55.393Z,21.75
2023-01-11T01:30:56.755Z,21.76
2023-01-11T01:32:58.085Z,21.76
2023-01-11T01:34:59.437Z,21.75
2023-01-11T01:37:00.788Z,21.74
2023-01-11T01:39:02.203Z,21.73
2023-01-11T01:41:03.538Z,21.70
2023-01-11T01:43:04.870Z,21.71
2023-01-11T01:45:07.001Z,21.70
2023-01-11T01:47:08.335Z,21.68
2023-01-11T01:49:09.681Z,21.66
2023-01-11T01:51:10.997Z,21.59
2023-01-11T01:53:12.305Z,21.54
2023-01-11T01:55:13.702Z,21.49
2023-01-11T01:57:15.010Z,21.44
2023-01-11T01:59:16.345Z,21.40
2023-01-11T02:01:36.598Z,21.36
2023-01-11T02:03:37.927Z,21.33
2023-01-11T02:05:39.267Z,21.29
2023-01-11T02:07:40.769Z,21.30
2023-01-11T02:09:42.100Z,21.29
2023-01-11T02:11:43.466Z,21.28
2023-01-11T02:13:46.202Z,21.28
2023-01-11T02:16:07.557Z,21.26
2023-01-11T02:18:09.140Z,21.26
2023-01-11T02:20:10.492Z,21.27
2023-01-11T02:22:13.034Z,21.28
2023-01-11T02:24:14.321Z,21.29
2023-01-11T02:26:15.610Z,21.35
2023-01-11T02:28:16.946Z,21.39
2023-01-11T02:30:18.248Z,21.44
2023-01-11T02:32:19.978Z,21.47
2023-01-11T02:34:21.336Z,21.51
2023-01-11T02:36:22.635Z,21.58
2023-01-11T02:38:23.970Z,21.63
2023-01-11T02:40:25.266Z,21.65
2023-01-11T02:42:45.380Z,21.69
2023-01-11T02:45:01.879Z,21.71
2023-01-11T02:47:03.238Z,21.74
2023-01-11T02:49:04.710Z,21.74
2023-01-11T02:51:06.071Z,21.75
2023-01-11T02:53:07.378Z,21.73
2023-01-11T02:55:08.744Z,21.75
2023-01-11T02:57:10.078Z,21.74
2023-01-11T02:59:11.407Z,21.75
2023-01-11T03:01:12.741Z,21.74
2023-01-11T03:03:14.137Z,21.74
2023-01-11T03:05:15.520Z,21.70
2023-01-11T03:07:16.817Z,21.64
2023-01-11T03:09:18.116Z,20.38
2023-01-11T03:11:45.404Z,21.54
2023-01-11T03:13:46.806Z,21.47
2023-01-11T03:15:48.170Z,21.45
2023-01-11T03:17:49.548Z,21.43
2023-01-11T03:19:50.932Z,21.40
2023-01-11T03:21:52.230Z,21.37
2023-01-11T03:23:53.569Z,21.35
2023-01-11T03:25:54.867Z,21.33
2023-01-11T03:27:56.198Z,21.32
2023-01-11T03:29:57.573Z,21.29
2023-01-11T03:31:58.902Z,21.28
2023-01-11T03:34:00.201Z,21.23
2023-01-11T03:36:01.549Z,21.23
2023-01-11T03:38:02.918Z,21.19
2023-01-11T03:40:04.336Z,21.14
2023-01-11T03:42:05.648Z,20.86
2023-01-11T03:44:07.019Z,18.10
2023-01-11T03:46:08.418Z,17.12
2023-01-11T03:48:09.748Z,16.35
2023-01-11T03:50:11.228Z,15.78
2023-01-11T03:52:12.761Z,17.00
2023-01-11T03:54:14.068Z,18.78
2023-01-11T03:56:15.379Z,19.81
2023-01-11T03:58:16.723Z,20.28
2023-01-11T04:00:18.043Z,20.62
2023-01-11T04:02:19.388Z,20.78
2023-01-11T04:04:20.762Z,20.76
2023-01-11T04:06:22.127Z,20.71
2023-01-11T04:08:23.491Z,20.89
2023-01-11T04:10:24.828Z,21.01
2023-01-11T04:12:26.125Z,21.07
2023-01-11T04:14:27.684Z,21.13
2023-01-11T04:16:28.985Z,21.18
2023-01-11T04:18:30.339Z,21.23
2023-01-11T04:20:31.635Z,21.26
2023-01-11T04:22:32.935Z,21.29
2023-01-11T04:24:34.231Z,21.30
2023-01-11T04:26:35.561Z,21.33
2023-01-11T04:28:36.898Z,21.36
2023-01-11T04:30:38.321Z,21.38
2023-01-11T04:32:39.651Z,21.39
2023-01-11T04:34:40.949Z,21.43
2023-01-11T04:36:42.292Z,21.45
2023-01-11T04:38:43.609Z,21.48
2023-01-11T04:40:44.900Z,21.48
2023-01-11T04:42:46.232Z,21.50
2023-01-11T04:44:48.847Z,21.51
2023-01-11T04:46:50.228Z,21.52
2023-01-11T04:48:52.365Z,21.51
2023-01-11T04:50:53.659Z,21.54
2023-01-11T04:52:54.950Z,21.55
2023-01-11T04:54:56.355Z,21.54
2023-01-11T04:56:57.652Z,21.55
2023-01-11T04:58:58.994Z,21.54
2023-01-11T05:01:00.392Z,21.52
2023-01-11T05:03:01.714Z,21.49
2023-01-11T05:05:03.013Z,21.45
2023-01-11T05:07:04.328Z,21.39
2023-01-11T05:09:05.715Z,21.32
2023-01-11T05:11:07.063Z,21.25
2023-01-11T05:13:08.361Z,21.19
2023-01-11T05:15:09.879Z,21.10
2023-01-11T05:17:11.182Z,21.01
2023-01-11T05:19:12.481Z,20.93
2023-01-11T05:21:13.786Z,20.86
2023-01-11T05:23:15.098Z,20.82
2023-01-11T05:25:16.436Z,20.81
2023-01-11T05:27:17.734Z,20.80
2023-01-11T05:29:21.140Z,20.80
2023-01-11T05:31:22.524Z,20.78
2023-01-11T05:33:23.862Z,20.74
2023-01-11T05:35:25.194Z,20.73
2023-01-11T05:37:26.629Z,20.74
2023-01-11T05:39:28.024Z,20.74
2023-01-11T05:41:29.360Z,20.78
2023-01-11T05:43:30.657Z,20.79
2023-01-11T05:45:32.964Z,20.84
2023-01-11T05:47:34.346Z,20.89
2023-01-11T05:49:35.676Z,20.95
2023-01-11T05:51:38.268Z,20.98
2023-01-11T05:53:39.604Z,21.05
2023-01-11T05:55:41.104Z,21.08
2023-01-11T05:57:42.447Z,21.10
2023-01-11T05:59:44.226Z,21.14
2023-01-11T06:01:45.607Z,21.16
2023-01-11T06:03:46.972Z,21.18
2023-01-11T06:05:48.303Z,21.22
2023-01-11T06:07:49.587Z,21.23
2023-01-11T06:09:50.919Z,21.27
2023-01-11T06:11:52.262Z,21.27
2023-01-11T06:13:53.618Z,21.32
2023-01-11T06:15:54.950Z,21.32
2023-01-11T06:17:56.632Z,21.33
2023-01-11T06:19:57.926Z,21.32
2023-01-11T06:21:59.278Z,21.32
2023-01-11T06:24:00.702Z,21.34
2023-01-11T06:26:02.303Z,21.34
2023-01-11T06:28:03.612Z,21.34
2023-01-11T06:30:04.959Z,21.31
2023-01-11T06:32:06.281Z,21.33
2023-01-11T06:34:07.631Z,21.33
2023-01-11T06:36:11.671Z,21.32
2023-01-11T06:38:12.974Z,21.29
2023-01-11T06:40:14.355Z,21.28
2023-01-11T06:42:15.731Z,21.25
2023-01-11T06:44:17.179Z,21.21
2023-01-11T06:46:19.246Z,21.17
2023-01-11T06:48:20.676Z,21.13
2023-01-11T06:50:22.003Z,21.10
2023-01-11T06:52:23.314Z,21.06
2023-01-11T06:54:25.650Z,21.02
2023-01-11T06:56:26.958Z,20.98
2023-01-11T06:58:28.297Z,20.98
2023-01-11T07:00:29.778Z,20.96
2023-01-11T07:02:31.306Z,20.91
2023-01-11T07:04:32.602Z,20.88
2023-01-11T07:06:33.897Z,20.86
2023-01-11T07:08:35.235Z,20.85
2023-01-11T07:10:36.588Z,20.83
2023-01-11T07:12:37.882Z,20.83
2023-01-11T07:14:39.217Z,20.82
2023-01-11T07:16:40.507Z,20.83
2023-01-11T07:18:41.801Z,20.84
2023-01-11T07:20:43.122Z,20.87
2023-01-11T07:22:44.454Z,20.90
2023-01-11T07:24:48.314Z,20.95
2023-01-11T07:26:49.786Z,21.01
2023-01-11T07:28:51.092Z,21.03
2023-01-11T07:30:58.724Z,21.09
2023-01-11T07:33:00.590Z,21.09
2023-01-11T07:35:01.901Z,21.13
2023-01-11T07:37:03.257Z,21.14
2023-01-11T07:39:04.545Z,21.18
2023-01-11T07:41:25.795Z,21.20
2023-01-11T07:43:27.142Z,21.24
2023-01-11T07:45:34.402Z,21.25
2023-01-11T07:47:42.287Z,21.26
2023-01-11T07:49:43.587Z,21.25
2023-01-11T07:51:44.883Z,21.28
2023-01-11T07:53:46.246Z,21.28
2023-01-11T07:55:47.599Z,21.27
2023-01-11T07:57:48.905Z,21.31
2023-01-11T07:59:50.266Z,21.28
2023-01-11T08:01:51.614Z,21.29
2023-01-11T08:03:53.051Z,21.29
2023-01-11T08:05:54.553Z,21.29
2023-01-11T08:07:55.846Z,21.25
2023-01-11T08:09:57.146Z,21.22
2023-01-11T08:12:16.976Z,21.23
2023-01-11T08:14:36.674Z,21.22
2023-01-11T08:16:37.970Z,21.19
2023-01-11T08:18:39.317Z,21.17
2023-01-11T08:20:40.696Z,21.11
2023-01-11T08:22:42.088Z,21.08
2023-01-11T08:24:43.607Z,21.06
2023-01-11T08:26:45.403Z,21.03
2023-01-11T08:28:46.720Z,21.01
2023-01-11T08:30:48.025Z,20.99
2023-01-11T08:32:49.497Z,20.96
2023-01-11T08:34:50.865Z,20.95
2023-01-11T08:36:52.206Z,20.94
2023-01-11T08:38:53.519Z,20.93
2023-01-11T08:40:54.845Z,20.92
2023-01-11T08:42:56.730Z,20.92
2023-01-11T08:44:58.054Z,20.91
2023-01-11T08:47:02.138Z,20.90
2023-01-11T08:49:03.477Z,20.91
2023-01-11T08:51:06.001Z,20.92
2023-01-11T08:53:07.357Z,20.93
2023-01-11T08:55:08.731Z,20.97
2023-01-11T08:57:10.065Z,20.97
2023-01-11T08:59:11.623Z,21.01
2023-01-11T09:01:12.988Z,21.05
2023-01-11T09:03:15.103Z,21.06
2023-01-11T09:05:18.279Z,21.10
2023-01-11T09:07:23.243Z,21.12
2023-01-11T09:09:24.617Z,21.15
2023-01-11T09:11:44.614Z,21.17
2023-01-11T09:13:45.929Z,21.20
2023-01-11T09:15:47.882Z,21.18
2023-01-11T09:17:49.243Z,21.20
2023-01-11T09:19:50.710Z,21.22
2023-01-11T09:21:52.199Z,21.22
2023-01-11T09:23:53.499Z,21.24
2023-01-11T09:25:54.957Z,21.20
2023-01-11T09:27:56.284Z,21.19
2023-01-11T09:29:57.658Z,21.17
2023-01-11T09:31:59.077Z,21.16
2023-01-11T09:34:00.375Z,21.15
2023-01-11T09:36:02.948Z,21.17
2023-01-11T09:38:04.339Z,21.19
2023-01-11T09:40:05.636Z,21.17
2023-01-11T09:42:07.447Z,21.15
2023-01-11T09:44:12.045Z,21.14
2023-01-11T09:46:13.377Z,21.11
2023-01-11T09:48:17.430Z,21.11
2023-01-11T09:50:19.777Z,21.09
2023-01-11T09:52:21.085Z,21.07
2023-01-11T09:54:22.442Z,21.07
2023-01-11T09:56:25.319Z,21.06
2023-01-11T09:58:28.708Z,21.06
2023-01-11T10:00:30.107Z,21.04
2023-01-11T10:02:31.603Z,21.04
2023-01-11T10:04:33.764Z,21.02
2023-01-11T10:06:35.094Z,21.02
2023-01-11T10:18:28.616Z,19.47
2023-01-11T10:18:30.322Z,21.00
2023-01-11T10:20:35.340Z,21.00
2023-01-11T10:22:39.692Z,21.02
2023-01-11T10:24:42.236Z,21.00
2023-01-11T10:26:43.999Z,21.03
2023-01-11T10:28:54.435Z,21.04
2023-01-11T10:31:08.432Z,21.02
2023-01-11T10:33:09.807Z,21.01
2023-01-11T10:35:24.410Z,21.01
2023-01-11T10:37:25.706Z,21.02
2023-01-11T10:39:45.591Z,21.04
2023-01-11T10:41:52.534Z,21.06
2023-01-11T10:43:53.919Z,21.05
2023-01-11T10:45:55.419Z,21.05
2023-01-11T10:47:56.776Z,21.06
2023-01-11T10:49:58.094Z,21.11
2023-01-11T10:51:59.419Z,21.11
2023-01-11T10:54:00.900Z,21.09
2023-01-11T10:56:02.369Z,21.09
2023-01-11T10:58:03.903Z,21.09
2023-01-11T11:00:05.379Z,21.10
2023-01-11T11:02:06.786Z,21.09
2023-01-11T11:04:08.118Z,21.12
2023-01-11T11:06:09.452Z,21.12
2023-01-11T11:08:13.237Z,21.13
2023-01-11T11:10:15.160Z,21.12
2023-01-11T11:12:16.454Z,21.14
2023-01-11T11:14:18.763Z,21.12
2023-01-11T11:16:20.097Z,21.12
2023-01-11T11:18:21.430Z,21.12
2023-01-11T11:20:22.759Z,21.13
2023-01-11T11:22:24.054Z,21.10
2023-01-11T11:24:27.810Z,21.10
2023-01-11T11:26:29.226Z,21.09
2023-01-11T11:28:30.579Z,21.10
2023-01-11T11:30:31.917Z,21.09
2023-01-11T11:32:35.597Z,21.08
2023-01-11T11:34:39.042Z,21.08
2023-01-11T11:36:40.344Z,21.08
2023-01-11T11:38:41.665Z,21.08
2023-01-11T11:40:43.006Z,21.06
2023-01-11T11:42:44.308Z,21.09
2023-01-11T11:44:45.616Z,21.11
2023-01-11T11:46:46.952Z,21.07
2023-01-11T11:48:48.283Z,21.05
2023-01-11T11:50:49.535Z,21.08
2023-01-11T11:52:50.828Z,21.07
2023-01-11T11:54:53.310Z,21.06
2023-01-11T11:56:54.611Z,21.07
2023-01-11T11:58:56.928Z,21.08
2023-01-11T12:00:58.266Z,21.08
2023-01-11T12:02:59.607Z,21.05
2023-01-11T12:05:00.938Z,21.07
2023-01-11T12:07:02.261Z,21.06
2023-01-11T12:09:06.679Z,21.04
2023-01-11T12:11:08.127Z,21.03
2023-01-11T12:13:09.458Z,21.05
2023-01-11T12:15:10.809Z,21.05
2023-01-11T12:17:12.135Z,21.01
2023-01-11T12:19:13.431Z,21.02
2023-01-11T12:21:14.890Z,21.05
2023-01-11T12:23:17.004Z,21.08
2023-01-11T12:25:18.307Z,21.05
2023-01-11T12:27:19.670Z,21.04
2023-01-11T12:29:21.047Z,21.02
2023-01-11T12:31:22.390Z,21.03
2023-01-11T12:33:23.730Z,21.02
2023-01-11T12:35:25.037Z,21.05
2023-01-11T12:37:26.446Z,21.06
2023-01-11T12:39:27.789Z,21.06
2023-01-11T12:41:44.451Z,21.05
2023-01-11T12:43:45.831Z,21.04
2023-01-11T12:45:47.247Z,21.04
2023-01-11T12:47:48.857Z,21.05
2023-01-11T12:49:50.156Z,21.06
2023-01-11T12:51:51.494Z,21.05
2023-01-11T12:53:52.831Z,21.05
2023-01-11T12:55:54.123Z,21.07
2023-01-11T12:58:14.110Z,21.04
2023-01-11T13:00:15.917Z,21.04
2023-01-11T13:02:17.275Z,21.06
2023-01-11T13:04:19.900Z,21.06
2023-01-11T13:06:21.242Z,21.05
2023-01-11T13:08:22.609Z,21.04
2023-01-11T13:10:23.937Z,21.06
2023-01-11T13:12:25.259Z,21.05
2023-01-11T13:14:26.555Z,21.05
2023-01-11T13:16:27.889Z,21.06
2023-01-11T13:18:29.325Z,21.06
2023-01-11T13:20:30.914Z,21.05
2023-01-11T13:22:33.526Z,21.04
2023-01-11T13:24:34.863Z,21.06
2023-01-11T13:26:36.274Z,21.09
2023-01-11T13:28:37.736Z,21.07
2023-01-11T13:30:39.103Z,21.09
2023-01-11T13:32:40.500Z,21.10
2023-01-11T13:34:41.807Z,21.08
2023-01-11T13:36:43.120Z,21.11
2023-01-11T13:38:44.462Z,21.08
2023-01-11T13:40:45.848Z,21.07
2023-01-11T13:42:47.143Z,21.07
2023-01-11T13:44:48.483Z,21.08
2023-01-11T13:46:50.013Z,21.10
2023-01-11T13:48:51.306Z,21.07
2023-01-11T13:50:52.633Z,21.07
2023-01-11T13:52:53.924Z,21.07
2023-01-11T13:54:55.307Z,21.08
2023-01-11T13:56:56.665Z,21.04
2023-01-11T13:58:58.026Z,20.97
2023-01-11T14:00:59.368Z,20.89
2023-01-11T14:03:01.418Z,20.79
2023-01-11T14:05:02.759Z,20.75
2023-01-11T14:07:04.055Z,20.71
2023-01-11T14:09:05.388Z,20.69
2023-01-11T14:11:06.687Z,20.68
2023-01-11T14:13:07.982Z,20.72
2023-01-11T14:15:09.276Z,20.73
2023-01-11T14:17:10.568Z,19.26
2023-01-11T14:19:11.934Z,19.69
2023-01-11T14:21:13.257Z,20.56
2023-01-11T14:23:14.610Z,21.06
2023-01-11T14:25:15.941Z,21.35
2023-01-11T14:27:17.262Z,21.55
2023-01-11T14:29:18.724Z,21.63
2023-01-11T14:31:20.068Z,21.77
2023-01-11T14:33:21.391Z,21.85
2023-01-11T14:35:22.740Z,21.90
2023-01-11T14:37:24.074Z,21.97
2023-01-11T14:39:25.429Z,22.03
2023-01-11T14:41:26.755Z,22.02
2023-01-11T14:43:28.051Z,22.08
2023-01-11T14:45:29.490Z,22.14
2023-01-11T14:47:30.798Z,22.21
2023-01-11T14:49:32.131Z,22.23
2023-01-11T14:51:33.967Z,22.20
2023-01-11T14:53:35.346Z,22.03
2023-01-11T14:55:37.444Z,21.92
2023-01-11T14:57:39.775Z,21.84
2023-01-11T14:59:41.088Z,21.77
2023-01-11T15:01:42.432Z,21.75
2023-01-11T15:03:46.832Z,21.72
2023-01-11T15:05:48.154Z,21.69
2023-01-11T15:07:49.451Z,21.67
2023-01-11T15:09:56.708Z,21.63
2023-01-11T15:11:58.106Z,21.64
2023-01-11T15:13:59.410Z,21.64
2023-01-11T15:16:19.148Z,21.63
2023-01-11T15:18:20.477Z,20.69
2023-01-11T15:20:21.812Z,21.54
2023-01-11T15:22:23.115Z,21.51
2023-01-11T15:24:24.520Z,21.50
2023-01-11T15:26:25.857Z,21.48
2023-01-11T15:28:27.202Z,21.44
2023-01-11T15:30:28.768Z,21.42
2023-01-11T15:32:30.107Z,21.39
2023-01-11T15:34:31.441Z,21.40
2023-01-11T15:36:32.736Z,21.39
2023-01-11T15:38:34.041Z,21.36
2023-01-11T15:40:35.459Z,21.35
2023-01-11T15:42:39.604Z,21.32
2023-01-11T15:44:40.908Z,21.33
2023-01-11T15:46:54.798Z,21.35
2023-01-11T15:48:56.152Z,21.35
2023-01-11T15:50:57.466Z,21.44
2023-01-11T15:52:58.832Z,21.42
2023-01-11T15:55:00.148Z,21.64
2023-01-11T15:57:04.467Z,21.89
2023-01-11T15:59:05.775Z,22.01
2023-01-11T16:01:07.180Z,22.11
2023-01-11T16:03:08.535Z,22.16
2023-01-11T16:05:09.851Z,22.16
2023-01-11T16:07:11.143Z,22.19
2023-01-11T16:09:12.451Z,22.24
2023-01-11T16:11:13.791Z,22.25
2023-01-11T16:13:15.287Z,22.28
2023-01-11T16:15:16.728Z,22.29
2023-01-11T16:17:18.038Z,22.29
2023-01-11T16:19:22.634Z,22.29
2023-01-11T16:21:23.924Z,22.30
2023-01-11T16:23:25.230Z,22.29
2023-01-11T16:25:26.609Z,22.29
2023-01-11T16:27:27.983Z,22.34
2023-01-11T16:29:29.779Z,22.34
2023-01-11T16:31:31.118Z,22.27
2023-01-11T16:33:35.165Z,22.26
2023-01-11T16:35:36.460Z,22.23
2023-01-11T16:37:40.414Z,22.19
2023-01-11T16:39:44.390Z,22.14
2023-01-11T16:41:48.416Z,22.12
2023-01-11T16:43:52.479Z,22.10
2023-01-11T16:45:56.713Z,22.08
2023-01-11T16:47:58.064Z,22.03
2023-01-11T16:49:59.402Z,22.00
2023-01-11T16:52:00.759Z,21.96
2023-01-11T16:54:02.789Z,21.66
2023-01-11T16:56:06.930Z,20.48
2023-01-11T16:58:08.292Z,21.19
2023-01-11T17:00:09.586Z,21.33
2023-01-11T17:02:13.935Z,21.84
2023-01-11T17:04:19.252Z,22.01
2023-01-11T17:06:20.781Z,22.22
2023-01-11T17:08:22.109Z,22.20
2023-01-11T17:10:23.519Z,22.05
2023-01-11T17:12:27.847Z,22.41
2023-01-11T17:14:29.177Z,22.84
2023-01-11T17:16:30.599Z,22.70
2023-01-11T17:18:31.983Z,22.60
2023-01-11T17:20:33.459Z,22.72
2023-01-11T17:22:34.762Z,22.26
2023-01-11T17:24:36.122Z,22.02
2023-01-11T17:26:40.507Z,21.96
2023-01-11T17:28:41.850Z,22.21
2023-01-11T17:30:43.209Z,22.40
2023-01-11T17:32:44.603Z,22.83
2023-01-11T17:34:45.898Z,22.82
2023-01-11T17:36:47.323Z,22.82
2023-01-11T17:38:48.623Z,22.80
2023-01-11T17:40:50.038Z,22.60
2023-01-11T17:43:10.001Z,22.57
2023-01-11T17:45:14.340Z,22.62
2023-01-11T17:47:15.646Z,22.60
2023-01-11T17:49:17.025Z,22.76
2023-01-11T17:51:20.366Z,22.65
2023-01-11T17:53:26.798Z,22.58
2023-01-11T17:55:28.482Z,22.57
2023-01-11T17:57:29.853Z,22.54
2023-01-11T17:59:31.396Z,22.52
2023-01-11T18:01:32.754Z,22.45
2023-01-11T18:03:34.092Z,22.41
2023-01-11T18:05:35.387Z,22.39
2023-01-11T18:07:39.705Z,22.36
2023-01-11T18:09:41.023Z,22.04
2023-01-11T18:11:42.331Z,22.06
2023-01-11T18:13:43.646Z,22.44
2023-01-11T18:15:48.125Z,22.43
2023-01-11T18:17:53.168Z,22.44
2023-01-11T18:19:54.526Z,22.55
2023-01-11T18:22:01.730Z,22.69
2023-01-11T18:24:03.034Z,22.49
2023-01-11T18:26:04.382Z,22.65
2023-01-11T18:28:08.593Z,22.93
2023-01-11T18:30:11.399Z,22.67
2023-01-11T18:32:15.629Z,22.44
2023-01-11T18:34:16.964Z,22.33
2023-01-11T18:36:33.286Z,22.29
2023-01-11T18:38:40.612Z,22.30
2023-01-11T18:40:41.933Z,22.43
2023-01-11T18:44:49.417Z,22.74
2023-01-11T18:46:51.676Z,22.80
2023-01-11T18:48:53.023Z,22.91
2023-01-11T18:50:55.773Z,22.80
2023-01-11T18:52:57.805Z,22.33
2023-01-11T18:54:59.247Z,22.07
2023-01-11T18:57:00.590Z,21.91
2023-01-11T18:59:01.936Z,21.93
2023-01-11T19:01:05.547Z,21.86
2023-01-11T19:03:07.215Z,21.84
2023-01-11T19:05:08.512Z,21.78
2023-01-11T19:07:09.816Z,21.73
2023-01-11T19:09:11.168Z,21.67
2023-01-11T19:11:13.930Z,21.63
2023-01-11T19:13:24.229Z,21.60
2023-01-11T19:15:25.593Z,21.55
2023-01-11T19:17:29.654Z,21.52
2023-01-11T19:19:31.126Z,21.51
2023-01-11T19:21:32.457Z,21.49
2023-01-11T19:23:36.751Z,21.49
2023-01-11T19:25:38.117Z,21.52
2023-01-11T19:27:42.482Z,21.52
2023-01-11T19:29:46.708Z,22.19
2023-01-11T19:31:51.985Z,22.61
2023-01-11T19:33:53.279Z,22.76
2023-01-11T19:35:54.579Z,22.60
2023-01-11T19:37:55.908Z,22.56
2023-01-11T19:40:00.285Z,22.59
2023-01-11T19:42:04.720Z,22.66
2023-01-11T19:44:06.011Z,22.66
2023-01-11T19:46:11.418Z,22.71
2023-01-11T19:48:12.930Z,22.77
2023-01-11T19:50:14.479Z,22.79
2023-01-11T19:52:19.266Z,22.84
2023-01-11T19:54:24.448Z,22.91
2023-01-11T19:56:25.746Z,23.16
2023-01-11T19:58:27.066Z,23.08
2023-01-11T20:00:31.891Z,23.00
2023-01-11T20:02:33.208Z,22.96
2023-01-11T20:04:34.571Z,22.93
2023-01-11T20:06:35.948Z,22.91
2023-01-11T20:08:44.127Z,22.89
2023-01-11T20:10:46.456Z,22.87
2023-01-11T20:12:47.946Z,22.82
2023-01-11T20:14:49.294Z,22.87
2023-01-11T20:16:50.624Z,22.22
2023-01-11T20:18:52.249Z,22.19
2023-01-11T20:20:53.593Z,22.54
2023-01-11T20:22:54.927Z,22.49
2023-01-11T20:24:56.248Z,22.39
2023-01-11T20:26:57.661Z,22.33
2023-01-11T20:28:59.034Z,22.29
2023-01-11T20:31:02.214Z,22.55
2023-01-11T20:33:03.841Z,22.39
2023-01-11T20:35:05.186Z,22.30
2023-01-11T20:37:06.536Z,22.50
2023-01-11T20:39:09.336Z,22.39
2023-01-11T20:41:10.643Z,22.37
2023-01-11T20:43:11.965Z,22.32
2023-01-11T20:45:13.284Z,22.33
2023-01-11T20:47:14.618Z,22.32
2023-01-11T20:49:15.972Z,22.04
2023-01-11T20:51:17.281Z,21.89
2023-01-11T20:53:18.657Z,21.99
2023-01-11T20:55:22.928Z,22.18
2023-01-11T20:57:24.274Z,22.36
2023-01-11T20:59:25.578Z,22.10
2023-01-11T21:01:26.964Z,22.27
2023-01-11T21:03:28.297Z,22.40
2023-01-11T21:05:29.631Z,22.54
2023-01-11T21:07:30.992Z,22.78
2023-01-11T21:09:32.403Z,22.94
2023-01-11T21:11:33.722Z,23.02
2023-01-11T21:13:35.063Z,23.11
2023-01-11T21:15:36.351Z,23.24
2023-01-11T21:17:37.872Z,23.27
2023-01-11T21:19:39.210Z,23.29
2023-01-11T21:21:40.509Z,23.33
2023-01-11T21:23:41.810Z,23.34
2023-01-11T21:25:43.122Z,23.33
2023-01-11T21:27:44.417Z,23.29
2023-01-11T21:29:45.781Z,23.27
2023-01-11T21:31:47.228Z,23.15
2023-01-11T21:33:48.875Z,22.79
2023-01-11T21:35:50.205Z,21.09
2023-01-11T21:37:51.496Z,19.73
2023-01-11T21:39:52.968Z,19.10
2023-01-11T21:42:00.149Z,18.71
2023-01-11T21:44:05.093Z,19.91
2023-01-11T21:46:06.426Z,21.00
2023-01-11T21:48:07.731Z,21.70
2023-01-11T21:50:09.081Z,22.06
2023-01-11T21:52:10.624Z,22.24
2023-01-11T21:54:11.924Z,22.55
2023-01-11T21:56:13.236Z,22.43
2023-01-11T21:58:14.540Z,22.41
2023-01-11T22:00:17.104Z,22.63
2023-01-11T22:02:18.431Z,22.72
2023-01-11T22:04:19.779Z,22.76
2023-01-11T22:06:24.051Z,22.84
2023-01-11T22:08:25.587Z,22.88
2023-01-11T22:10:27.063Z,22.92
2023-01-11T22:12:28.407Z,22.96
2023-01-11T22:14:30.566Z,23.08
2023-01-11T22:16:31.903Z,23.14
2023-01-11T22:18:33.254Z,23.25
2023-01-11T22:20:34.572Z,23.30
2023-01-11T22:22:35.922Z,23.26
2023-01-11T22:24:37.252Z,23.29
2023-01-11T22:26:39.349Z,22.46
2023-01-11T22:28:59.257Z,19.44
2023-01-11T22:31:00.596Z,18.89
2023-01-11T22:33:02.218Z,20.13
2023-01-11T22:35:03.510Z,21.01
2023-01-11T22:37:04.851Z,21.38
2023-01-11T22:39:06.246Z,21.52
2023-01-11T22:41:07.555Z,21.59
2023-01-11T22:43:09.325Z,21.60
2023-01-11T22:45:10.623Z,21.60
2023-01-11T22:47:12.039Z,21.60
2023-01-11T22:49:13.405Z,21.61
2023-01-11T22:51:14.699Z,21.61
2023-01-11T22:53:16.026Z,21.62
2023-01-11T22:55:17.337Z,21.63
2023-01-11T22:57:18.663Z,21.62
2023-01-11T22:59:20.002Z,21.64
2023-01-11T23:01:21.401Z,21.64
2023-01-11T23:03:22.766Z,21.64
2023-01-11T23:05:24.156Z,21.66
2023-01-11T23:07:25.482Z,21.67
2023-01-11T23:09:27.286Z,21.69
2023-01-11T23:11:47.505Z,21.68
2023-01-11T23:14:02.001Z,21.69
2023-01-11T23:16:03.328Z,21.72
2023-01-11T23:18:04.789Z,21.72
2023-01-11T23:20:06.083Z,21.73
2023-01-11T23:22:07.425Z,21.72
2023-01-11T23:24:08.738Z,21.71
2023-01-11T23:26:11.808Z,21.70
2023-01-11T23:28:13.103Z,21.71
2023-01-11T23:30:14.406Z,21.67
2023-01-11T23:32:15.712Z,21.66
2023-01-11T23:34:17.006Z,21.64
2023-01-11T23:36:21.584Z,21.61
2023-01-11T23:38:22.920Z,21.59
2023-01-11T23:40:24.237Z,21.54
2023-01-11T23:42:28.498Z,21.52
2023-01-11T23:44:29.817Z,21.49
2023-01-11T23:46:49.892Z,21.46
2023-01-11T23:48:51.183Z,21.44
2023-01-11T23:50:52.489Z,21.42
2023-01-11T23:52:53.800Z,21.41
2023-01-11T23:54:55.102Z,21.38
2023-01-11T23:56:56.446Z,21.33
2023-01-11T23:58:57.727Z,21.28
